Time;durP1;ratioP1;P1;durP2;ratioP2;P2;SDS_P1;SDS_P2;PMS_P1;PMS_P2;Temp;Humidity;BMP_temperature;BMP_pressure;BME280_temperature;BME280_humidity;BME280_pressure;Samples;Min_cycle;Max_cycle;Signal;HPM_P1;HPM_P2
2022/06/20 00:00:00;;;;;;;2.17;0.40;;;14.30;86.00;;;;;;2101325;28;20037;-94
2022/06/20 00:01:21;;;;;;;1.88;0.50;;;14.30;86.00;;;;;;2080948;28;20045;-94
2022/06/20 00:02:47;;;;;;;3.33;0.50;;;14.30;86.10;;;;;;2084320;28;20119;-95
2022/06/20 00:04:11;;;;;;;3.03;0.63;;;14.30;86.10;;;;;;2108028;28;20047;-96
2022/06/20 00:05:34;;;;;;;2.10;0.50;;;14.30;86.20;;;;;;2099346;28;20053;-95
2022/06/20 00:06:53;;;;;;;1.38;0.50;;;14.30;86.20;;;;;;2096883;28;20410;-95
2022/06/20 00:08:12;;;;;;;2.30;0.65;;;14.30;86.30;;;;;;2084271;28;20037;-95
2022/06/20 00:09:32;;;;;;;2.05;0.50;;;14.20;86.30;;;;;;2074089;28;20045;-95
2022/06/20 00:10:51;;;;;;;1.20;0.40;;;14.20;86.40;;;;;;2090015;28;20044;-94
2022/06/20 00:12:20;;;;;;;2.30;0.60;;;14.20;86.40;;;;;;2092488;28;20057;-95
2022/06/20 00:13:42;;;;;;;1.73;0.40;;;14.20;86.50;;;;;;2102785;28;20512;-96
2022/06/20 00:15:05;;;;;;;2.42;0.55;;;14.10;86.60;;;;;;2098615;28;20040;-95
2022/06/20 00:16:25;;;;;;;4.68;0.60;;;14.20;86.80;;;;;;2102688;28;20041;-96
2022/06/20 00:17:44;;;;;;;2.05;0.40;;;14.10;86.70;;;;;;2108120;28;20103;-96
2022/06/20 00:19:03;;;;;;;3.55;0.50;;;14.10;86.80;;;;;;2099222;28;20049;-94
2022/06/20 00:20:23;;;;;;;2.08;0.50;;;14.10;86.90;;;;;;2104764;28;20056;-94
2022/06/20 00:21:43;;;;;;;2.15;0.50;;;14.10;86.90;;;;;;2103297;28;20028;-94
2022/06/20 00:23:02;;;;;;;1.90;0.60;;;14.10;87.00;;;;;;2090135;28;20040;-96
2022/06/20 00:24:21;;;;;;;3.50;0.60;;;14.10;87.00;;;;;;2107853;28;20043;-95
2022/06/20 00:25:41;;;;;;;2.38;0.50;;;14.10;87.20;;;;;;2088945;28;20033;-95
2022/06/20 00:27:06;;;;;;;2.97;0.60;;;14.10;87.20;;;;;;2098647;28;20036;-95
2022/06/20 00:28:25;;;;;;;3.17;0.60;;;14.00;87.10;;;;;;2113567;28;20458;-95
2022/06/20 00:29:45;;;;;;;2.95;0.80;;;14.10;87.20;;;;;;2108630;28;20032;-94
2022/06/20 00:31:05;;;;;;;2.33;0.55;;;14.10;87.20;;;;;;2097966;28;20789;-94
2022/06/20 00:32:24;;;;;;;2.53;0.43;;;14.10;87.20;;;;;;2094981;28;20044;-95
2022/06/20 00:33:43;;;;;;;3.35;0.60;;;14.00;87.10;;;;;;2078185;28;20041;-94
2022/06/20 00:35:03;;;;;;;3.38;0.50;;;14.10;87.20;;;;;;2093443;28;20033;-95
2022/06/20 00:36:22;;;;;;;2.38;0.47;;;14.10;87.30;;;;;;2101722;28;20040;-94
2022/06/20 00:37:41;;;;;;;2.33;0.45;;;14.10;87.30;;;;;;2108226;28;20044;-95
2022/06/20 00:39:01;;;;;;;3.15;0.57;;;14.00;87.30;;;;;;2109257;28;20040;-96
2022/06/20 00:40:27;;;;;;;1.98;0.50;;;14.10;87.30;;;;;;2099802;28;20064;-95
2022/06/20 00:41:48;;;;;;;1.65;0.63;;;14.10;87.20;;;;;;2105280;28;20032;-95
2022/06/20 00:43:13;;;;;;;3.13;0.57;;;14.00;87.20;;;;;;2105239;28;20039;-94
2022/06/20 00:44:36;;;;;;;2.63;0.50;;;14.00;87.20;;;;;;2114402;28;20040;-94
2022/06/20 00:45:58;;;;;;;3.15;0.65;;;14.00;87.20;;;;;;2113289;28;20027;-94
2022/06/20 00:47:22;;;;;;;2.22;0.50;;;14.10;87.40;;;;;;2116141;27;20035;-95
2022/06/20 00:48:57;;;;;;;2.05;0.60;;;14.00;87.30;;;;;;2109452;28;20532;-95
2022/06/20 00:50:22;;;;;;;2.35;0.70;;;14.00;87.40;;;;;;2106701;28;20036;-95
2022/06/20 00:51:56;;;;;;;1.70;0.47;;;14.10;87.40;;;;;;2108628;28;20044;-94
2022/06/20 00:53:44;;;;;;;2.50;0.50;;;14.10;87.40;;;;;;2112201;28;20420;-95
2022/06/20 00:55:35;;;;;;;2.45;0.50;;;14.10;87.30;;;;;;2109465;28;20044;-96
2022/06/20 00:57:00;;;;;;;1.90;0.40;;;14.10;87.30;;;;;;2114004;27;20039;-95
2022/06/20 00:58:35;;;;;;;3.33;0.60;;;14.10;87.30;;;;;;2115964;28;20036;-95
2022/06/20 01:00:05;;;;;;;2.08;0.43;;;14.10;87.30;;;;;;2106546;28;20048;-95
2022/06/20 01:01:38;;;;;;;3.38;0.63;;;14.10;87.90;;;;;;2101495;28;20024;-95
2022/06/20 01:03:17;;;;;;;1.70;0.40;;;14.10;87.30;;;;;;2102435;28;20036;-95
2022/06/20 01:04:47;;;;;;;1.73;0.60;;;14.20;87.40;;;;;;2114206;28;20032;-94
2022/06/20 01:06:11;;;;;;;1.50;0.50;;;14.10;87.30;;;;;;2114466;28;20036;-95
2022/06/20 01:07:48;;;;;;;1.23;0.40;;;14.20;87.30;;;;;;2115893;28;20040;-95
2022/06/20 01:09:09;;;;;;;2.22;0.30;;;14.10;87.20;;;;;;2113729;28;20047;-95
2022/06/20 01:10:38;;;;;;;2.78;0.40;;;14.10;87.30;;;;;;2103960;28;20032;-96
2022/06/20 01:12:02;;;;;;;2.13;0.40;;;14.10;87.40;;;;;;2105043;28;20039;-96
2022/06/20 01:13:23;;;;;;;2.15;0.40;;;14.20;87.50;;;;;;2082851;28;20037;-95
2022/06/20 01:14:42;;;;;;;2.03;0.50;;;14.20;87.50;;;;;;2107639;28;20512;-95
2022/06/20 01:16:14;;;;;;;1.77;0.40;;;14.20;87.50;;;;;;2094367;28;20048;-96
2022/06/20 01:17:36;;;;;;;2.35;0.50;;;14.20;87.50;;;;;;2111323;28;20118;-95
2022/06/20 01:19:00;;;;;;;2.95;0.43;;;14.20;87.60;;;;;;2107214;28;20052;-95
2022/06/20 01:20:25;;;;;;;1.88;0.50;;;14.20;87.60;;;;;;2116007;28;20074;-96
2022/06/20 01:21:44;;;;;;;2.05;0.45;;;14.20;87.60;;;;;;2110952;28;20032;-95
2022/06/20 01:23:16;;;;;;;2.00;0.50;;;14.20;87.70;;;;;;2091061;28;20034;-95
2022/06/20 01:24:51;;;;;;;2.92;0.50;;;14.20;87.70;;;;;;2102992;28;20024;-95
2022/06/20 01:26:33;;;;;;;2.05;0.50;;;14.20;87.80;;;;;;2109171;28;20039;-96
2022/06/20 01:27:53;;;;;;;2.08;0.63;;;14.20;88.40;;;;;;2109454;28;20036;-95
2022/06/20 01:29:13;;;;;;;2.83;0.57;;;14.20;87.80;;;;;;2096214;28;20044;-95
2022/06/20 01:30:37;;;;;;;1.77;0.40;;;14.20;87.90;;;;;;2098694;28;20049;-95
2022/06/20 01:31:59;;;;;;;2.30;0.50;;;14.20;88.00;;;;;;2115053;27;20505;-95
2022/06/20 01:33:22;;;;;;;1.65;0.32;;;14.20;87.90;;;;;;2108290;28;20044;-95
2022/06/20 01:34:41;;;;;;;1.80;0.40;;;14.20;87.90;;;;;;2113493;28;20043;-95
2022/06/20 01:37:41;;;;;;;1.73;0.40;;;14.20;88.50;;;;;;2114633;28;20493;-95
2022/06/20 01:39:01;;;;;;;1.23;0.50;;;14.20;87.90;;;;;;2113271;28;20040;-95
2022/06/20 01:40:21;;;;;;;2.85;0.60;;;14.20;87.90;;;;;;2106798;28;20028;-95
2022/06/20 01:43:18;;;;;;;2.10;0.43;;;14.20;88.00;;;;;;2108682;28;20543;-94
2022/06/20 01:44:43;;;;;;;2.97;0.60;;;14.10;87.90;;;;;;2098660;28;20136;-94
2022/06/20 01:46:09;;;;;;;2.13;0.52;;;14.10;88.00;;;;;;2104182;28;20036;-95
2022/06/20 01:47:29;;;;;;;2.30;0.52;;;14.10;88.10;;;;;;2111038;28;20027;-94
2022/06/20 01:48:52;;;;;;;2.47;0.60;;;14.10;88.10;;;;;;2103527;28;20520;-94
2022/06/20 01:50:12;;;;;;;1.45;0.50;;;14.10;88.20;;;;;;2108596;28;20023;-95
2022/06/20 01:51:40;;;;;;;2.88;0.77;;;14.10;88.20;;;;;;2103168;28;20048;-94
2022/06/20 01:53:02;;;;;;;2.22;0.65;;;14.00;88.20;;;;;;2098177;28;20024;-94
2022/06/20 01:54:25;;;;;;;3.13;0.50;;;14.10;88.30;;;;;;2101361;28;20055;-95
2022/06/20 01:55:48;;;;;;;2.67;0.60;;;14.00;88.20;;;;;;2118051;27;20031;-95
2022/06/20 01:57:10;;;;;;;2.35;0.60;;;14.00;88.20;;;;;;2115698;27;20032;-95
2022/06/20 01:58:35;;;;;;;1.35;0.40;;;14.00;88.40;;;;;;2104268;28;20511;-95
2022/06/20 02:00:00;;;;;;;1.92;0.50;;;13.90;88.40;;;;;;2105464;28;20040;-95
2022/06/20 02:01:19;;;;;;;2.88;0.68;;;13.90;88.60;;;;;;2111282;28;20114;-95
2022/06/20 02:02:50;;;;;;;2.50;0.50;;;13.90;88.60;;;;;;2112698;27;20135;-95
2022/06/20 02:04:13;;;;;;;2.55;0.50;;;13.90;88.80;;;;;;2113151;28;20031;-95
2022/06/20 02:05:33;;;;;;;3.10;0.60;;;13.90;88.80;;;;;;2115841;28;20031;-96
2022/06/20 02:06:54;;;;;;;1.33;0.60;;;13.90;88.90;;;;;;2104321;28;20036;-95
2022/06/20 02:08:18;;;;;;;2.38;0.40;;;13.80;88.90;;;;;;2109117;28;20274;-95
2022/06/20 02:09:39;;;;;;;2.47;0.50;;;13.80;88.90;;;;;;2109495;28;20040;-95
2022/06/20 02:10:58;;;;;;;;;;;13.80;89.00;;;;;;2106062;28;20469;-95
2022/06/20 02:12:19;;;;;;;1.95;0.60;;;13.70;88.90;;;;;;2122964;27;19907;-94
2022/06/20 02:13:46;;;;;;;2.38;0.40;;;13.70;89.00;;;;;;2124669;27;20078;-95
2022/06/20 02:15:06;;;;;;;1.77;0.52;;;13.70;89.20;;;;;;2119998;27;20035;-95
2022/06/20 02:16:28;;;;;;;2.00;0.50;;;13.60;89.20;;;;;;2116823;28;20485;-95
2022/06/20 02:17:51;;;;;;;2.58;0.60;;;13.60;89.30;;;;;;2108133;28;20040;-95
2022/06/20 02:19:19;;;;;;;2.42;0.50;;;13.60;89.40;;;;;;2104099;28;20420;-94
2022/06/20 02:20:50;;;;;;;1.75;0.50;;;13.60;89.50;;;;;;2116005;27;20039;-96
2022/06/20 02:22:11;;;;;;;2.15;0.85;;;13.60;89.60;;;;;;2115445;28;20440;-95
2022/06/20 02:23:35;;;;;;;2.20;0.50;;;13.60;89.60;;;;;;2113047;28;20513;-95
2022/06/20 02:25:05;;;;;;;2.88;0.50;;;13.60;89.70;;;;;;2113477;28;20506;-95
2022/06/20 02:26:25;;;;;;;1.42;0.50;;;13.50;89.80;;;;;;2114625;28;20043;-94
2022/06/20 02:27:50;;;;;;;1.70;0.60;;;13.50;89.80;;;;;;2099276;28;20041;-96
2022/06/20 02:29:23;;;;;;;1.48;0.40;;;13.50;89.80;;;;;;2108416;27;20048;-95
2022/06/20 02:30:42;;;;;;;3.17;0.50;;;13.50;89.80;;;;;;2114464;28;20043;-96
2022/06/20 02:32:23;;;;;;;2.03;0.50;;;13.50;89.80;;;;;;2095482;28;20044;-94
2022/06/20 02:33:43;;;;;;;1.80;0.50;;;13.50;89.90;;;;;;2106575;28;20521;-96
2022/06/20 02:35:04;;;;;;;;;;;13.50;89.90;;;;;;2110455;28;20529;-95
2022/06/20 02:36:24;;;;;;;1.38;0.40;;;13.50;89.70;;;;;;2107510;28;19908;-95
2022/06/20 02:37:45;;;;;;;1.75;0.55;;;13.60;89.60;;;;;;2117920;27;20027;-95
2022/06/20 02:39:04;;;;;;;0.73;0.40;;;13.60;89.60;;;;;;2098005;28;20041;-94
2022/06/20 02:40:25;;;;;;;1.85;0.50;;;13.60;89.60;;;;;;2108198;28;20346;-95
2022/06/20 02:41:45;;;;;;;;;;;13.60;89.60;;;;;;2105897;28;20526;-94
2022/06/20 02:43:10;;;;;;;0.88;0.32;;;13.60;89.40;;;;;;2106737;28;19912;-95
2022/06/20 02:44:30;;;;;;;0.85;0.35;;;13.70;89.30;;;;;;2104744;28;20039;-95
2022/06/20 02:45:53;;;;;;;2.10;0.50;;;13.70;89.30;;;;;;2104203;28;20032;-96
2022/06/20 02:47:14;;;;;;;1.20;0.38;;;13.70;89.40;;;;;;2110056;28;20023;-94
2022/06/20 02:48:34;;;;;;;;;;;13.70;89.40;;;;;;2107594;28;20040;-95
2022/06/20 02:49:56;;;;;;;1.30;0.50;;;13.70;89.40;;;;;;2099749;28;19908;-95
2022/06/20 02:51:28;;;;;;;0.93;0.40;;;13.60;89.40;;;;;;2107239;28;20118;-95
2022/06/20 02:52:58;;;;;;;2.65;0.60;;;13.60;89.60;;;;;;2105294;28;20510;-94
2022/06/20 02:54:21;;;;;;;1.52;0.40;;;13.60;89.60;;;;;;2106758;28;20063;-95
2022/06/20 02:55:41;;;;;;;1.70;0.40;;;13.60;89.70;;;;;;2112695;28;20047;-96
2022/06/20 02:57:12;;;;;;;1.40;0.50;;;13.60;89.80;;;;;;2095214;28;20036;-95
2022/06/20 02:58:34;;;;;;;3.25;0.50;;;13.70;89.90;;;;;;2110425;28;20039;-95
2022/06/20 02:59:55;;;;;;;2.55;0.50;;;13.70;89.90;;;;;;2111335;28;20047;-94
2022/06/20 03:01:40;;;;;;;2.13;0.50;;;13.70;89.90;;;;;;2103428;28;20048;-95
2022/06/20 03:03:11;;;;;;;1.50;0.43;;;13.70;89.90;;;;;;2108695;27;20165;-95
2022/06/20 03:04:33;;;;;;;2.47;0.50;;;13.70;90.00;;;;;;2113350;28;20023;-96
2022/06/20 03:05:52;;;;;;;3.10;0.60;;;13.70;90.00;;;;;;2104243;28;20068;-95
2022/06/20 03:07:36;;;;;;;1.08;0.50;;;13.70;90.00;;;;;;2095252;28;20490;-95
2022/06/20 03:08:57;;;;;;;2.17;0.55;;;13.70;90.00;;;;;;2101090;28;20084;-95
2022/06/20 03:10:25;;;;;;;0.82;0.40;;;13.70;89.90;;;;;;2103225;28;20039;-95
2022/06/20 03:11:45;;;;;;;2.03;0.60;;;13.80;90.00;;;;;;2108780;28;20029;-96
2022/06/20 03:13:05;;;;;;;1.38;0.50;;;13.80;90.00;;;;;;2103300;28;20127;-95
2022/06/20 03:14:29;;;;;;;;;;;13.80;90.00;;;;;;2108761;28;20088;-94
2022/06/20 03:15:50;;;;;;;2.38;0.50;;;13.80;90.00;;;;;;2103892;28;19908;-94
2022/06/20 03:17:13;;;;;;;1.92;0.50;;;13.80;89.90;;;;;;2112171;28;20092;-94
2022/06/20 03:18:39;;;;;;;1.10;0.40;;;13.80;89.90;;;;;;2108361;28;20425;-95
2022/06/20 03:20:06;;;;;;;2.17;0.50;;;13.80;90.00;;;;;;2107092;28;20576;-95
2022/06/20 03:21:33;;;;;;;2.10;0.70;;;13.70;90.00;;;;;;2107756;28;20031;-94
2022/06/20 03:23:03;;;;;;;3.65;0.60;;;13.70;90.00;;;;;;2112135;28;20523;-95
2022/06/20 03:24:24;;;;;;;1.42;0.50;;;13.70;90.00;;;;;;2115432;28;20035;-95
2022/06/20 03:25:44;;;;;;;2.72;0.57;;;13.70;90.10;;;;;;2114795;28;20027;-95
2022/06/20 03:27:06;;;;;;;1.42;0.50;;;13.70;90.10;;;;;;2098819;28;20044;-95
2022/06/20 03:28:28;;;;;;;3.50;0.60;;;13.70;90.10;;;;;;2104089;28;20036;-94
2022/06/20 03:29:54;;;;;;;2.25;0.60;;;13.60;90.10;;;;;;2112262;28;20036;-94
2022/06/20 03:31:13;;;;;;;2.05;0.52;;;13.70;90.10;;;;;;2105126;28;20421;-93
2022/06/20 03:32:32;;;;;;;1.23;0.50;;;13.60;90.10;;;;;;2107054;28;20490;-94
2022/06/20 03:33:51;;;;;;;3.28;0.70;;;13.60;90.20;;;;;;2104692;28;20056;-94
2022/06/20 03:35:11;;;;;;;1.95;0.63;;;13.60;90.20;;;;;;2093017;28;20032;-93
2022/06/20 03:36:30;;;;;;;1.60;0.40;;;13.60;90.20;;;;;;2090765;28;20123;-94
2022/06/20 03:37:50;;;;;;;1.35;0.40;;;13.60;90.20;;;;;;2107717;28;20036;-94
2022/06/20 03:39:09;;;;;;;1.25;0.50;;;13.60;90.20;;;;;;2098588;28;20048;-94
2022/06/20 03:40:29;;;;;;;2.00;0.50;;;13.60;90.10;;;;;;2087356;28;20041;-94
2022/06/20 03:41:49;;;;;;;1.88;0.68;;;13.60;90.10;;;;;;2097743;28;20036;-94
2022/06/20 03:43:12;;;;;;;1.80;0.50;;;13.60;90.10;;;;;;2112151;28;20085;-95
2022/06/20 03:44:42;;;;;;;2.00;0.52;;;13.60;90.10;;;;;;2111933;28;20032;-95
2022/06/20 03:46:11;;;;;;;0.95;0.38;;;13.70;90.20;;;;;;2112633;28;20460;-95
2022/06/20 03:47:53;;;;;;;2.70;0.50;;;13.60;90.10;;;;;;2112413;28;20032;-94
2022/06/20 03:49:25;;;;;;;3.15;0.60;;;13.70;90.00;;;;;;2109754;28;20512;-94
2022/06/20 03:51:06;;;;;;;2.30;0.40;;;13.60;90.00;;;;;;2108770;28;20027;-94
2022/06/20 03:52:30;;;;;;;1.88;0.40;;;13.60;90.00;;;;;;2111472;28;20497;-96
2022/06/20 03:53:55;;;;;;;1.75;0.50;;;13.60;90.00;;;;;;2115595;28;20067;-95
2022/06/20 03:55:33;;;;;;;1.88;0.50;;;13.60;90.00;;;;;;2111336;28;20031;-95
2022/06/20 03:57:17;;;;;;;2.85;0.50;;;13.60;90.00;;;;;;2114371;28;20032;-96
2022/06/20 03:58:44;;;;;;;3.53;0.70;;;13.60;90.00;;;;;;2112271;28;20039;-94
2022/06/20 04:00:13;;;;;;;2.05;0.60;;;13.50;90.00;;;;;;2112893;28;20047;-96
2022/06/20 04:02:18;;;;;;;2.88;0.60;;;13.50;90.00;;;;;;2121839;28;20023;-95
2022/06/20 04:03:50;;;;;;;1.80;0.50;;;13.50;90.00;;;;;;2090422;28;20049;-95
2022/06/20 04:05:22;;;;;;;1.70;0.47;;;13.50;90.30;;;;;;2092410;28;20029;-95
2022/06/20 04:06:51;;;;;;;1.95;0.50;;;13.50;90.40;;;;;;2099910;28;20041;-93
2022/06/20 04:08:16;;;;;;;1.50;0.40;;;13.50;90.10;;;;;;2103983;28;20406;-94
2022/06/20 04:11:55;;;;;;;2.40;0.40;;;13.50;90.00;;;;;;2137222;27;20038;-95
2022/06/20 04:13:21;;;;;;;2.22;0.60;;;13.50;90.00;;;;;;2112286;28;20044;-94
2022/06/20 04:14:47;;;;;;;1.85;0.55;;;13.60;90.00;;;;;;2111815;28;20040;-95
2022/06/20 04:16:32;;;;;;;2.30;0.60;;;13.60;90.00;;;;;;2108406;28;20032;-96
2022/06/20 04:18:28;;;;;;;1.98;0.60;;;13.70;90.00;;;;;;2124465;27;20050;-94
2022/06/20 04:19:52;;;;;;;3.28;0.65;;;13.70;89.90;;;;;;2114423;28;20071;-95
2022/06/20 04:21:27;;;;;;;2.33;0.60;;;13.80;89.60;;;;;;2118168;28;20039;-95
2022/06/20 04:22:49;;;;;;;1.48;0.60;;;13.90;89.40;;;;;;2119615;28;20040;-95
2022/06/20 04:24:17;;;;;;;3.40;0.70;;;14.00;89.30;;;;;;2119465;28;20055;-95
2022/06/20 16:33:43;;;;;;;1.75;0.60;;;19.80;58.70;;;;;;2102517;28;20033;-95
2022/06/20 17:08:01;;;;;;;2.58;0.60;;;20.10;57.90;;;;;;2126094;28;20032;-95
